createdAt,value
2019-02-08T00:00:11.456Z,16.27
2019-02-08T00:02:37.718Z,16.03
2019-02-08T00:05:05.443Z,16.70
2019-02-08T00:07:32.018Z,15.77
2019-02-08T00:09:58.174Z,13.97
2019-02-08T00:12:24.454Z,12.80
2019-02-08T00:14:50.775Z,13.07
2019-02-08T00:17:17.043Z,13.23
2019-02-08T00:19:43.218Z,14.00
2019-02-08T00:22:10.220Z,14.03
2019-02-08T00:24:36.411Z,14.33
2019-02-08T00:27:03.579Z,13.23
2019-02-08T00:29:29.790Z,15.63
2019-02-08T00:31:56.069Z,14.97
2019-02-08T00:34:22.221Z,13.00
2019-02-08T00:36:48.429Z,15.40
2019-02-08T00:39:14.695Z,14.63
2019-02-08T00:41:41.302Z,15.00
2019-02-08T00:44:08.794Z,14.63
2019-02-08T00:46:34.947Z,15.13
2019-02-08T00:49:01.211Z,14.60
2019-02-08T00:51:27.511Z,14.00
2019-02-08T00:53:53.789Z,13.33
2019-02-08T00:56:20.057Z,15.60
2019-02-08T00:58:46.268Z,14.40
2019-02-08T01:01:12.427Z,14.50
2019-02-08T01:03:38.698Z,14.53
2019-02-08T01:06:05.504Z,15.40
2019-02-08T01:08:31.658Z,13.47
2019-02-08T01:10:57.918Z,13.10
2019-02-08T01:13:24.219Z,14.83
2019-02-08T01:15:50.479Z,14.67
2019-02-08T01:18:16.653Z,14.30
2019-02-08T01:20:42.948Z,14.30
2019-02-08T01:23:09.122Z,16.57
2019-02-08T01:25:35.466Z,15.13
2019-02-08T01:28:01.668Z,16.30
2019-02-08T01:30:30.668Z,14.73
2019-02-08T01:32:56.926Z,14.27
2019-02-08T01:35:23.515Z,13.27
2019-02-08T01:37:49.888Z,14.17
2019-02-08T01:40:22.948Z,14.50
2019-02-08T01:42:49.150Z,13.60
2019-02-08T01:45:21.314Z,13.37
2019-02-08T01:47:47.478Z,13.20
2019-02-08T01:50:16.792Z,14.37
2019-02-08T01:52:42.940Z,16.93
2019-02-08T01:55:09.403Z,18.03
2019-02-08T01:57:37.852Z,17.21
2019-02-08T02:00:28.567Z,17.53
2019-02-08T02:02:55.316Z,16.57
2019-02-08T02:05:22.186Z,16.73
2019-02-08T02:07:48.450Z,17.23
2019-02-08T02:10:34.120Z,16.27
2019-02-08T02:13:00.602Z,16.13
2019-02-08T02:15:27.165Z,16.97
2019-02-08T02:17:53.378Z,16.57
2019-02-08T02:20:28.169Z,17.93
2019-02-08T02:22:54.322Z,14.17
2019-02-08T02:25:21.038Z,15.83
2019-02-08T02:27:47.322Z,16.87
2019-02-08T02:30:23.094Z,15.03
2019-02-08T02:32:49.353Z,15.83
2019-02-08T02:35:15.625Z,15.80
2019-02-08T02:37:41.908Z,15.23
2019-02-08T02:40:16.463Z,15.37
2019-02-08T02:42:42.632Z,15.50
2019-02-08T02:45:50.439Z,16.33
2019-02-08T02:48:16.613Z,15.93
2019-02-08T02:50:42.790Z,15.30
2019-02-08T02:53:09.501Z,17.97
2019-02-08T02:55:35.755Z,17.00
2019-02-08T02:58:02.232Z,20.20
2019-02-08T03:00:34.954Z,24.67
2019-02-08T03:03:01.239Z,32.43
2019-02-08T03:05:27.500Z,25.27
2019-02-08T03:07:53.700Z,21.63
2019-02-08T03:10:21.273Z,20.77
2019-02-08T03:12:47.520Z,22.07
2019-02-08T03:15:16.948Z,22.27
2019-02-08T03:17:43.205Z,25.20
2019-02-08T03:20:12.510Z,27.53
2019-02-08T03:22:38.683Z,24.87
2019-02-08T03:25:08.258Z,20.20
2019-02-08T03:27:34.432Z,21.00
2019-02-08T03:30:00.771Z,22.27
2019-02-08T03:32:27.041Z,21.43
2019-02-08T03:34:53.210Z,21.70
2019-02-08T03:37:19.425Z,22.83
2019-02-08T03:39:45.692Z,25.03
2019-02-08T03:42:11.857Z,22.97
2019-02-08T03:44:38.186Z,26.73
2019-02-08T03:47:04.531Z,25.20
2019-02-08T03:49:30.694Z,22.63
2019-02-08T03:51:56.892Z,22.83
2019-02-08T03:54:23.050Z,20.13
2019-02-08T03:56:49.325Z,23.37
2019-02-08T03:59:15.521Z,20.83
2019-02-08T04:01:41.790Z,21.97
2019-02-08T04:04:13.229Z,18.03
2019-02-08T04:06:39.736Z,21.50
2019-02-08T04:09:07.319Z,25.30
2019-02-08T04:11:33.478Z,25.53
2019-02-08T04:13:59.682Z,20.53
2019-02-08T04:16:25.951Z,23.40
2019-02-08T04:18:52.119Z,23.20
2019-02-08T04:21:18.314Z,24.67
2019-02-08T04:23:44.485Z,25.03
2019-02-08T04:26:10.738Z,24.80
2019-02-08T04:28:37.045Z,23.13
2019-02-08T04:31:03.359Z,20.53
2019-02-08T04:33:29.524Z,18.23
2019-02-08T04:35:55.717Z,17.03
2019-02-08T04:38:21.883Z,16.70
2019-02-08T04:40:48.169Z,15.80
2019-02-08T04:43:14.487Z,17.80
2019-02-08T04:45:40.654Z,19.07
2019-02-08T04:48:06.814Z,20.63
2019-02-08T04:50:33.116Z,20.60
2019-02-08T04:52:59.295Z,22.10
2019-02-08T04:55:26.056Z,20.73
2019-02-08T04:57:52.360Z,15.40
2019-02-08T05:00:21.727Z,15.93
2019-02-08T05:02:47.895Z,17.63
2019-02-08T05:05:14.082Z,16.83
2019-02-08T05:07:40.351Z,18.70
2019-02-08T05:10:10.225Z,19.63
2019-02-08T05:12:36.530Z,19.30
2019-02-08T05:15:05.689Z,25.80
2019-02-08T05:17:31.847Z,30.07
2019-02-08T05:19:58.144Z,28.87
2019-02-08T05:22:24.295Z,27.47
2019-02-08T05:24:50.460Z,31.13
2019-02-08T05:27:16.779Z,27.07
2019-02-08T05:29:43.063Z,25.27
2019-02-08T05:32:09.436Z,28.47
2019-02-08T05:34:35.629Z,30.20
2019-02-08T05:37:01.791Z,36.27
2019-02-08T05:39:28.054Z,39.20
2019-02-08T05:41:54.358Z,42.50
2019-02-08T05:44:20.622Z,36.60
2019-02-08T05:46:46.894Z,41.00
2019-02-08T05:49:13.088Z,42.73
2019-02-08T05:51:39.350Z,42.37
2019-02-08T05:54:05.832Z,42.47
2019-02-08T05:56:32.038Z,54.03
2019-02-08T05:58:58.319Z,43.90
2019-02-08T06:01:24.590Z,45.73
2019-02-08T06:03:50.879Z,44.03
2019-02-08T06:06:17.162Z,40.77
2019-02-08T06:08:43.633Z,41.53
2019-02-08T06:11:09.834Z,41.07
2019-02-08T06:13:36.228Z,42.03
2019-02-08T06:16:03.020Z,43.87
2019-02-08T06:18:29.215Z,45.47
2019-02-08T06:20:55.476Z,59.00
2019-02-08T06:23:21.658Z,49.43
2019-02-08T06:25:48.063Z,65.87
2019-02-08T06:28:14.338Z,48.53
2019-02-08T06:30:40.609Z,63.27
2019-02-08T06:33:06.836Z,90.40
2019-02-08T06:35:33.011Z,50.10
2019-02-08T06:37:59.320Z,58.77
2019-02-08T06:40:28.914Z,68.03
2019-02-08T06:42:55.179Z,57.77
2019-02-08T06:45:24.044Z,56.50
2019-02-08T06:47:50.446Z,35.87
2019-02-08T06:50:19.422Z,33.10
2019-02-08T06:52:45.574Z,25.30
2019-02-08T06:55:12.264Z,27.33
2019-02-08T06:57:40.331Z,26.50
2019-02-08T07:00:14.117Z,31.37
2019-02-08T07:02:42.218Z,38.10
2019-02-08T07:05:19.508Z,39.17
2019-02-08T07:07:47.607Z,40.47
2019-02-08T07:10:18.585Z,44.30
2019-02-08T07:12:49.462Z,50.93
2019-02-08T07:15:20.579Z,48.87
2019-02-08T07:17:51.705Z,43.03
2019-02-08T07:20:19.908Z,41.83
2019-02-08T07:22:53.565Z,35.67
2019-02-08T07:25:36.662Z,36.87
2019-02-08T07:28:19.738Z,35.67
2019-02-08T07:30:50.795Z,30.53
2019-02-08T07:33:33.700Z,31.40
2019-02-08T07:36:05.058Z,27.43
2019-02-08T07:38:36.466Z,27.57
2019-02-08T07:41:06.266Z,24.60
2019-02-08T07:43:46.990Z,26.60
2019-02-08T07:46:21.896Z,26.07
2019-02-08T07:48:50.474Z,20.60
2019-02-08T07:51:24.796Z,21.00
2019-02-08T07:54:09.219Z,18.50
2019-02-08T07:56:39.881Z,23.30
2019-02-08T07:59:10.454Z,25.03
2019-02-08T08:01:39.034Z,23.83
2019-02-08T08:04:09.224Z,23.50
2019-02-08T08:06:43.856Z,22.87
2019-02-08T08:09:14.972Z,28.07
2019-02-08T08:11:46.140Z,25.23
2019-02-08T08:14:21.490Z,23.37
2019-02-08T08:17:06.383Z,26.00
2019-02-08T08:19:44.535Z,25.20
2019-02-08T08:22:28.461Z,26.67
2019-02-08T08:25:02.264Z,26.10
2019-02-08T08:27:34.144Z,27.63
2019-02-08T08:30:05.848Z,26.73
2019-02-08T08:32:36.230Z,27.23
2019-02-08T08:35:24.168Z,29.30
2019-02-08T08:37:53.961Z,30.20
2019-02-08T08:40:44.931Z,25.20
2019-02-08T08:43:33.018Z,32.17
2019-02-08T08:46:12.098Z,28.50
2019-02-08T08:48:58.571Z,29.27
2019-02-08T08:51:40.775Z,27.47
2019-02-08T08:54:26.231Z,28.67
2019-02-08T08:57:22.279Z,28.53
2019-02-08T09:00:08.795Z,29.27
2019-02-08T09:02:49.280Z,34.39
2019-02-08T09:05:34.524Z,30.97
2019-02-08T09:08:33.425Z,32.03
2019-02-08T09:11:30.522Z,33.90
2019-02-08T09:14:18.520Z,30.30
2019-02-08T09:17:08.043Z,29.90
2019-02-08T09:19:44.036Z,28.63
2019-02-08T09:22:35.062Z,27.73
2019-02-08T09:25:29.313Z,34.40
2019-02-08T09:28:08.112Z,35.93
2019-02-08T09:31:09.793Z,27.23
2019-02-08T09:34:00.835Z,24.53
2019-02-08T09:36:47.814Z,28.13
2019-02-08T09:39:26.213Z,26.03
2019-02-08T09:42:18.614Z,21.00
2019-02-08T09:44:57.573Z,27.59
2019-02-08T09:47:45.503Z,35.77
2019-02-08T09:50:44.262Z,44.13
2019-02-08T09:53:30.540Z,31.80
2019-02-08T09:56:27.668Z,37.00
2019-02-08T09:59:13.972Z,27.07
2019-02-08T10:02:17.468Z,34.13
2019-02-08T10:04:50.033Z,33.67
2019-02-08T10:07:19.787Z,28.00
2019-02-08T10:10:10.762Z,23.37
2019-02-08T10:12:55.622Z,24.33
2019-02-08T10:15:59.035Z,32.03
2019-02-08T10:18:37.956Z,33.17
2019-02-08T10:21:27.813Z,27.07
2019-02-08T10:24:15.918Z,27.40
2019-02-08T10:27:00.638Z,25.30
2019-02-08T10:30:02.450Z,28.43
2019-02-08T10:32:52.075Z,25.23
2019-02-08T10:35:36.615Z,26.37
2019-02-08T10:38:29.012Z,27.27
2019-02-08T10:41:07.750Z,23.37
2019-02-08T10:43:54.237Z,23.07
2019-02-08T10:46:39.232Z,22.13
2019-02-08T10:49:17.962Z,21.57
2019-02-08T10:51:59.771Z,22.17
2019-02-08T10:54:44.871Z,22.37
2019-02-08T10:57:27.330Z,22.03
2019-02-08T11:00:00.044Z,25.00
2019-02-08T11:03:03.639Z,16.50
2019-02-08T11:05:39.349Z,16.70
2019-02-08T11:08:32.209Z,19.17
2019-02-08T11:11:23.011Z,21.33
2019-02-08T11:14:12.903Z,21.03
2019-02-08T11:17:19.222Z,17.93
2019-02-08T11:19:50.891Z,16.40
2019-02-08T11:22:17.152Z,17.43
2019-02-08T11:24:43.498Z,15.27
2019-02-08T11:27:10.048Z,14.40
2019-02-08T11:29:38.366Z,11.33
2019-02-08T11:32:08.258Z,9.13
2019-02-08T11:34:34.425Z,9.10
2019-02-08T11:37:07.211Z,15.47
2019-02-08T11:39:28.948Z,22.53
2019-02-08T11:41:55.154Z,16.47
2019-02-08T11:44:21.642Z,10.17
2019-02-08T11:46:47.940Z,12.00
2019-02-08T11:49:14.430Z,12.93
2019-02-08T11:51:41.120Z,15.77
2019-02-08T11:54:07.416Z,11.57
2019-02-08T11:56:34.023Z,13.97
2019-02-08T11:59:00.494Z,12.03
2019-02-08T12:01:28.601Z,11.17
2019-02-08T12:03:54.776Z,11.77
2019-02-08T12:06:21.037Z,13.23
2019-02-08T12:08:47.351Z,11.40
2019-02-08T12:11:13.492Z,12.53
2019-02-08T12:13:39.670Z,13.87
2019-02-08T12:16:05.976Z,9.13
2019-02-08T12:18:32.226Z,11.40
2019-02-08T12:20:58.510Z,11.23
2019-02-08T12:23:24.806Z,10.97
2019-02-08T12:25:51.073Z,9.63
2019-02-08T12:28:17.534Z,11.00
2019-02-08T12:30:44.722Z,10.30
2019-02-08T12:33:11.375Z,11.40
2019-02-08T12:35:37.640Z,11.07
2019-02-08T12:38:04.051Z,11.33
2019-02-08T12:40:30.366Z,11.23
2019-02-08T12:42:56.652Z,10.97
2019-02-08T12:45:22.854Z,10.63
2019-02-08T12:47:49.008Z,9.47
2019-02-08T12:50:19.892Z,10.63
2019-02-08T12:52:46.098Z,10.53
2019-02-08T12:55:14.669Z,11.43
2019-02-08T12:57:40.830Z,10.97
2019-02-08T13:00:16.924Z,9.30
2019-02-08T13:02:43.190Z,9.57
2019-02-08T13:05:11.150Z,10.13
2019-02-08T13:07:37.359Z,9.83
2019-02-08T13:10:09.960Z,10.27
2019-02-08T13:12:36.234Z,10.87
2019-02-08T13:15:05.916Z,10.43
2019-02-08T13:17:32.089Z,10.10
2019-02-08T13:19:58.350Z,10.53
2019-02-08T13:22:24.557Z,16.03
2019-02-08T13:24:50.730Z,10.20
2019-02-08T13:27:16.998Z,17.67
2019-02-08T13:29:43.204Z,18.93
2019-02-08T13:32:09.390Z,10.57
2019-02-08T13:34:35.540Z,16.27
2019-02-08T13:37:02.211Z,12.23
2019-02-08T13:39:28.473Z,13.47
2019-02-08T13:41:54.699Z,13.47
2019-02-08T13:44:20.991Z,15.27
2019-02-08T13:46:47.263Z,15.87
2019-02-08T13:49:13.404Z,9.67
2019-02-08T13:51:39.597Z,12.43
2019-02-08T13:54:05.774Z,17.90
2019-02-08T13:56:32.063Z,13.27
2019-02-08T13:58:58.352Z,11.47
2019-02-08T14:01:24.611Z,15.13
2019-02-08T14:03:50.782Z,14.27
2019-02-08T14:06:16.987Z,11.90
2019-02-08T14:08:43.161Z,11.50
2019-02-08T14:11:09.314Z,12.87
2019-02-08T14:13:40.497Z,13.67
2019-02-08T14:16:03.946Z,12.57
2019-02-08T14:18:30.099Z,14.43
2019-02-08T14:20:56.290Z,14.53
2019-02-08T14:23:24.275Z,12.37
2019-02-08T14:25:50.596Z,13.50
2019-02-08T14:28:16.746Z,12.53
2019-02-08T14:30:43.321Z,15.47
2019-02-08T14:33:12.230Z,14.20
2019-02-08T14:35:38.626Z,12.53
2019-02-08T14:38:08.495Z,13.97
2019-02-08T14:40:35.125Z,11.67
2019-02-08T14:43:01.331Z,13.00
2019-02-08T14:45:27.800Z,12.60
2019-02-08T14:47:54.103Z,14.53
2019-02-08T14:50:23.994Z,15.37
2019-02-08T14:52:50.562Z,15.83
2019-02-08T14:55:16.747Z,10.37
2019-02-08T14:57:44.132Z,24.83
2019-02-08T15:00:19.453Z,16.03
2019-02-08T15:02:45.702Z,15.57
2019-02-08T15:05:14.216Z,15.17
2019-02-08T15:07:40.480Z,16.50
2019-02-08T15:10:25.624Z,13.53
2019-02-08T15:12:51.901Z,12.33
2019-02-08T15:15:18.458Z,15.63
2019-02-08T15:17:44.640Z,14.83
2019-02-08T15:20:14.414Z,16.97
2019-02-08T15:22:40.568Z,14.13
2019-02-08T15:25:08.281Z,13.93
2019-02-08T15:27:34.747Z,18.33
2019-02-08T15:30:00.908Z,17.90
2019-02-08T15:32:27.107Z,15.87
2019-02-08T15:34:53.282Z,20.17
2019-02-08T15:37:19.640Z,17.43
2019-02-08T15:39:45.837Z,19.53
2019-02-08T15:42:12.000Z,20.70
2019-02-08T15:44:38.312Z,51.17
2019-02-08T15:47:04.722Z,16.03
2019-02-08T15:49:30.881Z,18.30
2019-02-08T15:51:57.151Z,16.27
2019-02-08T15:54:23.446Z,15.00
2019-02-08T15:56:49.605Z,16.57
2019-02-08T15:59:15.866Z,17.43
2019-02-08T16:01:42.301Z,19.70
2019-02-08T16:04:08.551Z,16.77
2019-02-08T16:06:34.827Z,23.60
2019-02-08T16:09:01.029Z,18.93
2019-02-08T16:11:27.180Z,26.07
2019-02-08T16:13:53.439Z,16.97
2019-02-08T16:16:19.645Z,21.30
2019-02-08T16:18:45.911Z,22.13
2019-02-08T16:21:12.370Z,22.83
2019-02-08T16:23:38.560Z,19.47
2019-02-08T16:26:04.825Z,29.53
2019-02-08T16:28:31.090Z,24.07
2019-02-08T16:30:57.383Z,53.50
2019-02-08T16:33:23.669Z,48.80
2019-02-08T16:35:57.805Z,59.00
2019-02-08T16:38:23.984Z,49.17
2019-02-08T16:40:50.263Z,46.07
2019-02-08T16:43:16.424Z,45.60
2019-02-08T16:45:42.692Z,43.80
2019-02-08T16:48:11.567Z,42.67
2019-02-08T16:50:38.141Z,32.77
2019-02-08T16:53:06.299Z,37.10
2019-02-08T16:55:34.357Z,33.30
2019-02-08T16:58:00.522Z,35.77
2019-02-08T17:00:29.816Z,24.60
2019-02-08T17:02:58.685Z,35.03
2019-02-08T17:05:26.353Z,43.33
2019-02-08T17:07:52.548Z,42.57
2019-02-08T17:10:18.819Z,59.10
2019-02-08T17:12:45.072Z,184.70
2019-02-08T17:15:14.885Z,93.13
2019-02-08T17:17:41.191Z,62.73
2019-02-08T17:20:16.844Z,71.57
2019-02-08T17:22:43.024Z,157.83
2019-02-08T17:25:09.393Z,170.63
2019-02-08T17:27:35.649Z,69.07
2019-02-08T17:30:03.633Z,199.93
2019-02-08T17:32:29.805Z,354.33
2019-02-08T17:34:55.973Z,75.70
2019-02-08T17:37:22.277Z,80.60
2019-02-08T17:39:48.541Z,56.00
2019-02-08T17:42:14.700Z,49.77
2019-02-08T17:44:40.999Z,49.33
2019-02-08T17:47:07.342Z,57.97
2019-02-08T17:49:33.478Z,42.23
2019-02-08T17:51:59.779Z,42.87
2019-02-08T17:54:26.052Z,41.50
2019-02-08T17:56:52.213Z,37.37
2019-02-08T17:59:18.906Z,33.87
2019-02-08T18:01:45.171Z,31.50
2019-02-08T18:04:11.320Z,35.70
2019-02-08T18:06:37.648Z,101.27
2019-02-08T18:09:06.012Z,112.47
2019-02-08T18:11:32.277Z,90.90
2019-02-08T18:13:58.469Z,41.67
2019-02-08T18:16:24.633Z,51.23
2019-02-08T18:18:50.802Z,37.70
2019-02-08T18:21:16.993Z,38.13
2019-02-08T18:23:43.265Z,50.53
2019-02-08T18:26:09.525Z,52.50
2019-02-08T18:28:35.831Z,29.03
2019-02-08T18:31:02.285Z,81.93
2019-02-08T18:33:28.446Z,39.97
2019-02-08T18:35:54.644Z,44.30
2019-02-08T18:38:20.802Z,32.30
2019-02-08T18:40:47.069Z,33.57
2019-02-08T18:43:13.427Z,26.77
2019-02-08T18:45:39.592Z,30.90
2019-02-08T18:48:06.310Z,27.33
2019-02-08T18:50:38.841Z,33.13
2019-02-08T18:53:05.930Z,45.50
2019-02-08T18:55:32.180Z,36.30
2019-02-08T18:57:58.383Z,40.27
2019-02-08T19:00:27.777Z,34.40
2019-02-08T19:02:53.957Z,64.33
2019-02-08T19:05:20.168Z,50.87
2019-02-08T19:07:46.458Z,70.93
2019-02-08T19:10:15.358Z,37.23
2019-02-08T19:12:41.568Z,31.70
2019-02-08T19:15:11.058Z,42.07
2019-02-08T19:17:37.222Z,68.17
2019-02-08T19:20:06.729Z,59.60
2019-02-08T19:22:32.893Z,47.70
2019-02-08T19:24:59.061Z,52.97
2019-02-08T19:27:25.256Z,45.83
2019-02-08T19:29:51.414Z,42.20
2019-02-08T19:32:17.568Z,42.10
2019-02-08T19:34:43.772Z,50.83
2019-02-08T19:37:10.040Z,47.53
2019-02-08T19:39:36.299Z,70.87
2019-02-08T19:42:02.924Z,51.17
2019-02-08T19:44:29.099Z,30.80
2019-02-08T19:46:55.387Z,65.23
2019-02-08T19:49:24.471Z,132.37
2019-02-08T19:51:50.765Z,118.73
2019-02-08T19:54:17.034Z,35.27
2019-02-08T19:56:43.347Z,29.30
2019-02-08T19:59:09.617Z,40.60
2019-02-08T20:01:35.890Z,105.30
2019-02-08T20:04:03.884Z,36.40
2019-02-08T20:06:30.165Z,34.83
2019-02-08T20:08:56.433Z,25.17
2019-02-08T20:11:22.770Z,48.10
2019-02-08T20:13:49.045Z,59.17
2019-02-08T20:16:15.208Z,39.17
2019-02-08T20:18:41.405Z,27.53
2019-02-08T20:21:07.712Z,21.43
2019-02-08T20:23:33.855Z,33.30
2019-02-08T20:26:02.002Z,23.53
2019-02-08T20:28:28.631Z,24.83
2019-02-08T20:30:54.896Z,26.50
2019-02-08T20:33:22.891Z,22.43
2019-02-08T20:35:51.481Z,20.00
2019-02-08T20:38:17.654Z,19.63
2019-02-08T20:40:48.600Z,19.47
2019-02-08T20:43:14.869Z,21.70
2019-02-08T20:45:41.512Z,21.07
2019-02-08T20:48:16.620Z,23.23
2019-02-08T20:50:43.036Z,27.47
2019-02-08T20:53:09.223Z,27.03
2019-02-08T20:55:36.189Z,28.43
2019-02-08T20:58:05.115Z,32.00
2019-02-08T21:00:35.648Z,30.10
2019-02-08T21:03:05.875Z,27.33
2019-02-08T21:05:32.402Z,34.27
2019-02-08T21:07:59.359Z,30.23
2019-02-08T21:10:26.454Z,29.80
2019-02-08T21:12:55.103Z,28.53
2019-02-08T21:15:22.507Z,29.87
2019-02-08T21:17:48.697Z,30.23
2019-02-08T21:20:16.371Z,23.53
2019-02-08T21:22:42.536Z,21.50
2019-02-08T21:25:18.336Z,25.30
2019-02-08T21:27:44.612Z,25.87
2019-02-08T21:30:14.081Z,25.23
2019-02-08T21:32:40.372Z,24.33
2019-02-08T21:35:09.237Z,19.87
2019-02-08T21:37:35.866Z,23.23
2019-02-08T21:40:04.468Z,24.13
2019-02-08T21:42:30.726Z,20.40
2019-02-08T21:44:56.888Z,20.33
2019-02-08T21:47:23.196Z,17.97
2019-02-08T21:49:49.357Z,19.73
2019-02-08T21:52:15.568Z,19.33
2019-02-08T21:54:41.869Z,23.20
2019-02-08T21:57:08.140Z,23.40
2019-02-08T21:59:34.299Z,21.43
2019-02-08T22:02:00.617Z,22.40
2019-02-08T22:04:26.784Z,27.50
2019-02-08T22:06:52.953Z,29.37
2019-02-08T22:09:19.262Z,28.53
2019-02-08T22:11:46.476Z,30.40
2019-02-08T22:14:12.632Z,28.57
2019-02-08T22:16:38.832Z,19.87
2019-02-08T22:19:05.203Z,18.40
2019-02-08T22:21:31.711Z,16.70
2019-02-08T22:23:57.926Z,17.50
2019-02-08T22:26:24.222Z,19.13
2019-02-08T22:28:50.438Z,20.67
2019-02-08T22:31:16.606Z,19.97
2019-02-08T22:33:42.859Z,19.67
2019-02-08T22:36:09.016Z,21.13
2019-02-08T22:38:35.198Z,20.53
2019-02-08T22:41:01.463Z,19.73
2019-02-08T22:43:27.644Z,18.30
2019-02-08T22:45:53.952Z,19.37
2019-02-08T22:48:20.118Z,18.83
2019-02-08T22:50:46.882Z,49.40
2019-02-08T22:53:13.227Z,25.77
2019-02-08T22:55:39.395Z,16.97
2019-02-08T22:58:07.361Z,15.20
2019-02-08T23:00:40.310Z,24.63
2019-02-08T23:03:08.275Z,19.13
2019-02-08T23:05:34.433Z,27.47
2019-02-08T23:08:00.628Z,61.97
2019-02-08T23:10:27.094Z,83.90
2019-02-08T23:12:53.262Z,121.53
2019-02-08T23:15:19.457Z,57.30
2019-02-08T23:17:45.624Z,51.17
2019-02-08T23:20:11.992Z,36.13
2019-02-08T23:22:38.192Z,31.93
2019-02-08T23:25:05.259Z,17.90
2019-02-08T23:27:31.528Z,24.53
2019-02-08T23:29:57.829Z,22.13
2019-02-08T23:32:23.988Z,22.27
2019-02-08T23:34:50.266Z,19.17
2019-02-08T23:37:16.571Z,22.00
2019-02-08T23:39:42.734Z,20.07
2019-02-08T23:42:09.007Z,19.43
2019-02-08T23:44:35.317Z,16.77
2019-02-08T23:47:01.493Z,17.50
2019-02-08T23:49:27.765Z,16.13
2019-02-08T23:51:54.053Z,15.90
2019-02-08T23:54:20.431Z,13.17
2019-02-08T23:56:46.703Z,13.57
2019-02-08T23:59:12.998Z,13.17
